sensor_id;sensor_type;location;lat;lon;timestamp;P1;durP1;ratioP1;P2;durP2;ratioP2
4313;SDS011;2170;48.794;9.182;2023-07-20T05:09:19;3.83;;;3.33;;
4313;SDS011;2170;48.794;9.182;2023-07-20T05:11:48;2.40;;;2.30;;
4313;SDS011;2170;48.794;9.182;2023-07-20T05:14:15;3.50;;;3.20;;
4313;SDS011;2170;48.794;9.182;2023-07-20T05:16:42;3.13;;;2.77;;
4313;SDS011;2170;48.794;9.182;2023-07-20T05:19:17;3.00;;;2.77;;
4313;SDS011;2170;48.794;9.182;2023-07-20T05:21:47;4.30;;;3.23;;
4313;SDS011;2170;48.794;9.182;2023-07-20T05:24:19;4.80;;;2.40;;
4313;SDS011;2170;48.794;9.182;2023-07-20T05:26:47;5.30;;;2.63;;
4313;SDS011;2170;48.794;9.182;2023-07-20T05:29:23;4.63;;;2.90;;
4313;SDS011;2170;48.794;9.182;2023-07-20T05:32:02;4.37;;;2.90;;
4313;SDS011;2170;48.794;9.182;2023-07-20T05:34:51;4.07;;;2.60;;
4313;SDS011;2170;48.794;9.182;2023-07-20T05:37:45;3.00;;;2.63;;
4313;SDS011;2170;48.794;9.182;2023-07-20T05:44:10;3.53;;;2.50;;
4313;SDS011;2170;48.794;9.182;2023-07-20T05:46:52;2.57;;;2.37;;
4313;SDS011;2170;48.794;9.182;2023-07-20T05:49:38;3.57;;;2.73;;
4313;SDS011;2170;48.794;9.182;2023-07-20T05:52:07;5.80;;;2.77;;
4313;SDS011;2170;48.794;9.182;2023-07-20T06:16:51;4.60;;;3.43;;
4313;SDS011;2170;48.794;9.182;2023-07-20T06:19:24;3.97;;;2.63;;
4313;SDS011;2170;48.794;9.182;2023-07-20T06:22:11;3.37;;;3.07;;
4313;SDS011;2170;48.794;9.182;2023-07-20T07:39:42;2.80;;;2.60;;
4313;SDS011;2170;48.794;9.182;2023-07-20T07:42:24;2.97;;;2.67;;
4313;SDS011;2170;48.794;9.182;2023-07-20T07:45:09;3.07;;;2.77;;
4313;SDS011;2170;48.794;9.182;2023-07-20T07:47:44;2.70;;;2.50;;
4313;SDS011;2170;48.794;9.182;2023-07-20T07:50:16;3.83;;;2.63;;
4313;SDS011;2170;48.794;9.182;2023-07-20T07:52:51;3.10;;;2.77;;
4313;SDS011;2170;48.794;9.182;2023-07-20T07:55:32;6.47;;;2.77;;
4313;SDS011;2170;48.794;9.182;2023-07-20T07:58:09;3.47;;;2.77;;
4313;SDS011;2170;48.794;9.182;2023-07-20T08:00:40;3.47;;;2.80;;
4313;SDS011;2170;48.794;9.182;2023-07-20T08:03:13;4.80;;;2.83;;
4313;SDS011;2170;48.794;9.182;2023-07-20T08:05:46;3.10;;;2.50;;
4313;SDS011;2170;48.794;9.182;2023-07-20T08:08:15;2.83;;;2.63;;
4313;SDS011;2170;48.794;9.182;2023-07-20T08:10:54;2.33;;;2.13;;
4313;SDS011;2170;48.794;9.182;2023-07-20T08:13:22;4.57;;;2.90;;
4313;SDS011;2170;48.794;9.182;2023-07-20T08:16:01;2.70;;;2.50;;
4313;SDS011;2170;48.794;9.182;2023-07-20T09:02:47;2.47;;;2.07;;
4313;SDS011;2170;48.794;9.182;2023-07-20T09:05:27;2.60;;;2.40;;
4313;SDS011;2170;48.794;9.182;2023-07-20T09:08:04;3.60;;;2.60;;
4313;SDS011;2170;48.794;9.182;2023-07-20T09:11:00;3.07;;;2.83;;
4313;SDS011;2170;48.794;9.182;2023-07-20T09:14:01;3.07;;;2.50;;
4313;SDS011;2170;48.794;9.182;2023-07-20T09:17:02;2.80;;;2.30;;
4313;SDS011;2170;48.794;9.182;2023-07-20T09:22:52;3.00;;;2.27;;
4313;SDS011;2170;48.794;9.182;2023-07-20T09:25:44;2.43;;;2.23;;
4313;SDS011;2170;48.794;9.182;2023-07-20T09:28:26;3.23;;;2.10;;
4313;SDS011;2170;48.794;9.182;2023-07-20T09:31:23;2.77;;;2.57;;
4313;SDS011;2170;48.794;9.182;2023-07-20T09:34:23;2.20;;;2.10;;
4313;SDS011;2170;48.794;9.182;2023-07-20T09:37:36;4.23;;;2.33;;
4313;SDS011;2170;48.794;9.182;2023-07-20T09:40:47;11.67;;;2.93;;
4313;SDS011;2170;48.794;9.182;2023-07-20T09:43:54;2.53;;;2.30;;
4313;SDS011;2170;48.794;9.182;2023-07-20T09:47:03;3.23;;;2.07;;
4313;SDS011;2170;48.794;9.182;2023-07-20T09:50:00;4.60;;;2.03;;
4313;SDS011;2170;48.794;9.182;2023-07-20T09:52:39;3.67;;;2.20;;
4313;SDS011;2170;48.794;9.182;2023-07-20T09:58:16;1.90;;;1.80;;
4313;SDS011;2170;48.794;9.182;2023-07-20T10:01:20;4.47;;;2.17;;
4313;SDS011;2170;48.794;9.182;2023-07-20T10:15:36;7.23;;;2.10;;
4313;SDS011;2170;48.794;9.182;2023-07-20T10:18:29;1.93;;;1.83;;
4313;SDS011;2170;48.794;9.182;2023-07-20T10:21:22;1.87;;;1.77;;
4313;SDS011;2170;48.794;9.182;2023-07-20T10:24:00;3.17;;;2.10;;
4313;SDS011;2170;48.794;9.182;2023-07-20T10:26:34;1.97;;;1.87;;
4313;SDS011;2170;48.794;9.182;2023-07-20T10:29:12;1.60;;;1.50;;
4313;SDS011;2170;48.794;9.182;2023-07-20T10:31:59;2.20;;;2.10;;
4313;SDS011;2170;48.794;9.182;2023-07-20T10:34:38;3.70;;;1.40;;
4313;SDS011;2170;48.794;9.182;2023-07-20T10:37:50;2.23;;;1.57;;
4313;SDS011;2170;48.794;9.182;2023-07-20T10:40:27;1.40;;;1.30;;
4313;SDS011;2170;48.794;9.182;2023-07-20T10:43:02;2.30;;;1.70;;
4313;SDS011;2170;48.794;9.182;2023-07-20T10:45:40;1.33;;;1.23;;
4313;SDS011;2170;48.794;9.182;2023-07-20T10:48:16;2.00;;;1.73;;
4313;SDS011;2170;48.794;9.182;2023-07-20T10:53:45;2.03;;;1.70;;
4313;SDS011;2170;48.794;9.182;2023-07-20T10:56:27;1.67;;;1.57;;
4313;SDS011;2170;48.794;9.182;2023-07-20T10:59:17;2.30;;;2.20;;
4313;SDS011;2170;48.794;9.182;2023-07-20T11:02:06;1.87;;;1.67;;
4313;SDS011;2170;48.794;9.182;2023-07-20T11:04:50;2.40;;;1.50;;
4313;SDS011;2170;48.794;9.182;2023-07-20T11:07:44;1.60;;;1.50;;
4313;SDS011;2170;48.794;9.182;2023-07-20T11:10:35;2.43;;;1.80;;
4313;SDS011;2170;48.794;9.182;2023-07-20T11:13:20;1.80;;;1.70;;
4313;SDS011;2170;48.794;9.182;2023-07-20T11:16:11;1.83;;;1.67;;
4313;SDS011;2170;48.794;9.182;2023-07-20T11:18:48;1.47;;;1.37;;
4313;SDS011;2170;48.794;9.182;2023-07-20T11:21:40;1.63;;;1.53;;
4313;SDS011;2170;48.794;9.182;2023-07-20T11:24:22;3.00;;;1.40;;
4313;SDS011;2170;48.794;9.182;2023-07-20T11:27:06;1.30;;;1.30;;
4313;SDS011;2170;48.794;9.182;2023-07-20T11:29:53;1.73;;;1.63;;
4313;SDS011;2170;48.794;9.182;2023-07-20T11:32:31;1.80;;;1.70;;
4313;SDS011;2170;48.794;9.182;2023-07-20T11:35:29;1.50;;;1.37;;
4313;SDS011;2170;48.794;9.182;2023-07-20T11:41:35;1.50;;;1.40;;
4313;SDS011;2170;48.794;9.182;2023-07-20T11:44:25;1.83;;;1.50;;
4313;SDS011;2170;48.794;9.182;2023-07-20T11:47:18;2.10;;;1.90;;
4313;SDS011;2170;48.794;9.182;2023-07-20T11:50:10;2.90;;;1.77;;
4313;SDS011;2170;48.794;9.182;2023-07-20T11:53:43;1.80;;;1.70;;
4313;SDS011;2170;48.794;9.182;2023-07-20T11:56:10;4.07;;;1.70;;
4313;SDS011;2170;48.794;9.182;2023-07-20T12:05:41;2.40;;;1.30;;
4313;SDS011;2170;48.794;9.182;2023-07-20T12:08:26;1.73;;;1.63;;
4313;SDS011;2170;48.794;9.182;2023-07-20T12:10:54;1.43;;;1.23;;
4313;SDS011;2170;48.794;9.182;2023-07-20T12:13:37;1.67;;;1.40;;
4313;SDS011;2170;48.794;9.182;2023-07-20T12:16:10;1.60;;;1.50;;
4313;SDS011;2170;48.794;9.182;2023-07-20T12:18:41;1.90;;;1.77;;
4313;SDS011;2170;48.794;9.182;2023-07-20T12:21:19;1.63;;;1.53;;
4313;SDS011;2170;48.794;9.182;2023-07-20T12:24:04;2.23;;;1.40;;
4313;SDS011;2170;48.794;9.182;2023-07-20T12:26:44;1.60;;;1.40;;
4313;SDS011;2170;48.794;9.182;2023-07-20T12:29:31;5.73;;;1.60;;
4313;SDS011;2170;48.794;9.182;2023-07-20T12:32:06;1.60;;;1.50;;
4313;SDS011;2170;48.794;9.182;2023-07-20T12:34:52;1.60;;;1.50;;
4313;SDS011;2170;48.794;9.182;2023-07-20T12:37:28;3.40;;;1.90;;
4313;SDS011;2170;48.794;9.182;2023-07-20T12:40:01;3.77;;;1.67;;
4313;SDS011;2170;48.794;9.182;2023-07-20T12:43:54;1.90;;;1.60;;
4313;SDS011;2170;48.794;9.182;2023-07-20T12:52:46;4.03;;;1.77;;
4313;SDS011;2170;48.794;9.182;2023-07-20T12:55:21;3.47;;;1.30;;
4313;SDS011;2170;48.794;9.182;2023-07-20T12:58:02;1.50;;;1.40;;
4313;SDS011;2170;48.794;9.182;2023-07-20T13:00:49;2.50;;;1.57;;
4313;SDS011;2170;48.794;9.182;2023-07-20T13:03:32;1.57;;;1.47;;
4313;SDS011;2170;48.794;9.182;2023-07-20T13:06:36;1.50;;;1.40;;
4313;SDS011;2170;48.794;9.182;2023-07-20T13:09:26;2.00;;;1.30;;
4313;SDS011;2170;48.794;9.182;2023-07-20T13:12:05;3.00;;;1.40;;
4313;SDS011;2170;48.794;9.182;2023-07-20T13:14:50;2.70;;;1.70;;
4313;SDS011;2170;48.794;9.182;2023-07-20T13:17:24;2.93;;;1.43;;
4313;SDS011;2170;48.794;9.182;2023-07-20T13:19:58;2.30;;;1.20;;
4313;SDS011;2170;48.794;9.182;2023-07-20T13:22:29;2.03;;;1.70;;
4313;SDS011;2170;48.794;9.182;2023-07-20T13:25:21;1.53;;;1.47;;
4313;SDS011;2170;48.794;9.182;2023-07-20T13:31:43;1.30;;;1.30;;
4313;SDS011;2170;48.794;9.182;2023-07-20T13:34:24;6.37;;;1.70;;
4313;SDS011;2170;48.794;9.182;2023-07-20T13:37:00;1.37;;;1.27;;
4313;SDS011;2170;48.794;9.182;2023-07-20T13:39:36;1.70;;;1.60;;
4313;SDS011;2170;48.794;9.182;2023-07-20T13:42:19;1.77;;;1.67;;
4313;SDS011;2170;48.794;9.182;2023-07-20T13:44:59;1.77;;;1.67;;
4313;SDS011;2170;48.794;9.182;2023-07-20T13:47:35;4.77;;;1.63;;
4313;SDS011;2170;48.794;9.182;2023-07-20T13:50:08;1.70;;;1.40;;
4313;SDS011;2170;48.794;9.182;2023-07-20T13:52:52;1.93;;;1.73;;
4313;SDS011;2170;48.794;9.182;2023-07-20T13:55:37;2.43;;;1.53;;
4313;SDS011;2170;48.794;9.182;2023-07-20T13:58:36;1.43;;;1.43;;
4313;SDS011;2170;48.794;9.182;2023-07-20T14:01:11;3.33;;;1.63;;
4313;SDS011;2170;48.794;9.182;2023-07-20T14:04:01;3.17;;;1.47;;
4313;SDS011;2170;48.794;9.182;2023-07-20T14:06:45;1.63;;;1.50;;
4313;SDS011;2170;48.794;9.182;2023-07-20T14:09:23;2.27;;;1.60;;
4313;SDS011;2170;48.794;9.182;2023-07-20T14:12:02;2.57;;;1.60;;
4313;SDS011;2170;48.794;9.182;2023-07-20T14:14:42;1.70;;;1.50;;
4313;SDS011;2170;48.794;9.182;2023-07-20T14:17:23;1.43;;;1.33;;
4313;SDS011;2170;48.794;9.182;2023-07-20T14:20:10;1.43;;;1.40;;
4313;SDS011;2170;48.794;9.182;2023-07-20T14:22:50;1.30;;;1.20;;
4313;SDS011;2170;48.794;9.182;2023-07-20T14:25:25;2.40;;;1.40;;
4313;SDS011;2170;48.794;9.182;2023-07-20T14:27:55;1.60;;;1.50;;
4313;SDS011;2170;48.794;9.182;2023-07-20T14:30:32;3.27;;;1.77;;
4313;SDS011;2170;48.794;9.182;2023-07-20T14:33:00;2.97;;;1.50;;
4313;SDS011;2170;48.794;9.182;2023-07-20T14:35:37;1.40;;;1.27;;
4313;SDS011;2170;48.794;9.182;2023-07-20T14:38:35;2.10;;;1.43;;
4313;SDS011;2170;48.794;9.182;2023-07-20T14:41:22;2.10;;;1.60;;
4313;SDS011;2170;48.794;9.182;2023-07-20T14:43:54;2.37;;;1.30;;
4313;SDS011;2170;48.794;9.182;2023-07-20T14:46:43;1.43;;;1.10;;
4313;SDS011;2170;48.794;9.182;2023-07-20T14:49:40;1.40;;;1.30;;
4313;SDS011;2170;48.794;9.182;2023-07-20T14:52:31;1.43;;;1.20;;
4313;SDS011;2170;48.794;9.182;2023-07-20T14:55:24;3.03;;;1.80;;
4313;SDS011;2170;48.794;9.182;2023-07-20T14:58:03;1.57;;;1.47;;
4313;SDS011;2170;48.794;9.182;2023-07-20T15:00:37;2.07;;;1.50;;
4313;SDS011;2170;48.794;9.182;2023-07-20T15:03:41;1.40;;;1.30;;
4313;SDS011;2170;48.794;9.182;2023-07-20T15:06:15;1.63;;;1.53;;
4313;SDS011;2170;48.794;9.182;2023-07-20T15:09:05;1.63;;;1.23;;
4313;SDS011;2170;48.794;9.182;2023-07-20T15:11:43;2.57;;;1.50;;
4313;SDS011;2170;48.794;9.182;2023-07-20T15:14:25;2.90;;;1.53;;
4313;SDS011;2170;48.794;9.182;2023-07-20T15:17:03;1.23;;;1.13;;
4313;SDS011;2170;48.794;9.182;2023-07-20T15:19:38;1.30;;;1.30;;
4313;SDS011;2170;48.794;9.182;2023-07-20T15:22:12;1.70;;;1.60;;
4313;SDS011;2170;48.794;9.182;2023-07-20T15:24:48;1.40;;;1.23;;
4313;SDS011;2170;48.794;9.182;2023-07-20T15:27:25;2.23;;;1.70;;
4313;SDS011;2170;48.794;9.182;2023-07-20T15:29:57;2.00;;;1.40;;
4313;SDS011;2170;48.794;9.182;2023-07-20T15:32:27;1.40;;;1.30;;
4313;SDS011;2170;48.794;9.182;2023-07-20T15:35:03;1.17;;;1.17;;
4313;SDS011;2170;48.794;9.182;2023-07-20T15:37:36;1.40;;;1.30;;
4313;SDS011;2170;48.794;9.182;2023-07-20T15:40:15;1.47;;;1.40;;
4313;SDS011;2170;48.794;9.182;2023-07-20T15:42:49;1.67;;;1.27;;
4313;SDS011;2170;48.794;9.182;2023-07-20T15:45:49;1.80;;;1.70;;
4313;SDS011;2170;48.794;9.182;2023-07-20T15:48:29;1.20;;;1.13;;
4313;SDS011;2170;48.794;9.182;2023-07-20T15:51:07;1.70;;;1.60;;
4313;SDS011;2170;48.794;9.182;2023-07-20T15:53:38;1.50;;;1.40;;
4313;SDS011;2170;48.794;9.182;2023-07-20T15:56:13;1.93;;;1.30;;
4313;SDS011;2170;48.794;9.182;2023-07-20T15:58:45;1.53;;;1.43;;
4313;SDS011;2170;48.794;9.182;2023-07-20T16:01:20;2.17;;;1.80;;
4313;SDS011;2170;48.794;9.182;2023-07-20T16:03:57;1.40;;;1.30;;
4313;SDS011;2170;48.794;9.182;2023-07-20T16:06:44;1.80;;;1.70;;
4313;SDS011;2170;48.794;9.182;2023-07-20T16:09:16;1.80;;;1.70;;
4313;SDS011;2170;48.794;9.182;2023-07-20T16:11:46;2.20;;;1.47;;
4313;SDS011;2170;48.794;9.182;2023-07-20T16:14:19;1.20;;;1.17;;
4313;SDS011;2170;48.794;9.182;2023-07-20T16:16:50;2.10;;;1.73;;
4313;SDS011;2170;48.794;9.182;2023-07-20T16:19:17;4.33;;;1.83;;
4313;SDS011;2170;48.794;9.182;2023-07-20T16:21:56;1.30;;;1.30;;
4313;SDS011;2170;48.794;9.182;2023-07-20T16:24:24;1.30;;;1.30;;
4313;SDS011;2170;48.794;9.182;2023-07-20T16:27:00;1.50;;;1.40;;
4313;SDS011;2170;48.794;9.182;2023-07-20T16:29:34;1.90;;;1.70;;
4313;SDS011;2170;48.794;9.182;2023-07-20T16:32:07;1.57;;;1.47;;
4313;SDS011;2170;48.794;9.182;2023-07-20T16:34:37;3.40;;;1.50;;
4313;SDS011;2170;48.794;9.182;2023-07-20T16:37:07;1.90;;;1.77;;
4313;SDS011;2170;48.794;9.182;2023-07-20T16:39:40;3.50;;;1.70;;
4313;SDS011;2170;48.794;9.182;2023-07-20T16:42:11;2.13;;;1.93;;
4313;SDS011;2170;48.794;9.182;2023-07-20T16:44:48;1.37;;;1.30;;
4313;SDS011;2170;48.794;9.182;2023-07-20T16:47:18;1.70;;;1.33;;
4313;SDS011;2170;48.794;9.182;2023-07-20T16:49:53;1.40;;;1.30;;
4313;SDS011;2170;48.794;9.182;2023-07-20T16:52:26;2.80;;;1.50;;
4313;SDS011;2170;48.794;9.182;2023-07-20T16:54:54;1.70;;;1.60;;
4313;SDS011;2170;48.794;9.182;2023-07-20T16:57:24;1.67;;;1.57;;
4313;SDS011;2170;48.794;9.182;2023-07-20T16:59:57;2.07;;;1.70;;
4313;SDS011;2170;48.794;9.182;2023-07-20T17:02:35;1.50;;;1.40;;
4313;SDS011;2170;48.794;9.182;2023-07-20T17:05:09;1.80;;;1.70;;
4313;SDS011;2170;48.794;9.182;2023-07-20T17:07:44;1.80;;;1.70;;
4313;SDS011;2170;48.794;9.182;2023-07-20T17:10:29;1.30;;;1.30;;
4313;SDS011;2170;48.794;9.182;2023-07-20T17:13:02;3.10;;;1.17;;
4313;SDS011;2170;48.794;9.182;2023-07-20T17:15:46;8.47;;;1.67;;
4313;SDS011;2170;48.794;9.182;2023-07-20T17:18:23;1.67;;;1.57;;
4313;SDS011;2170;48.794;9.182;2023-07-20T17:21:05;2.03;;;1.60;;
4313;SDS011;2170;48.794;9.182;2023-07-20T18:15:58;2.60;;;1.80;;
4313;SDS011;2170;48.794;9.182;2023-07-20T18:19:27;3.43;;;1.90;;
4313;SDS011;2170;48.794;9.182;2023-07-20T19:35:41;2.00;;;1.50;;
4313;SDS011;2170;48.794;9.182;2023-07-20T19:38:20;4.23;;;2.40;;
4313;SDS011;2170;48.794;9.182;2023-07-20T19:41:14;3.00;;;1.97;;
4313;SDS011;2170;48.794;9.182;2023-07-20T19:43:41;2.73;;;2.03;;
4313;SDS011;2170;48.794;9.182;2023-07-20T19:46:12;2.87;;;2.27;;
4313;SDS011;2170;48.794;9.182;2023-07-20T19:48:46;2.30;;;2.20;;
4313;SDS011;2170;48.794;9.182;2023-07-20T19:51:21;2.67;;;2.43;;
4313;SDS011;2170;48.794;9.182;2023-07-20T19:53:54;3.40;;;3.13;;
4313;SDS011;2170;48.794;9.182;2023-07-20T19:56:26;3.13;;;2.30;;
4313;SDS011;2170;48.794;9.182;2023-07-20T19:59:01;3.00;;;2.40;;
4313;SDS011;2170;48.794;9.182;2023-07-20T20:01:31;3.00;;;2.70;;
4313;SDS011;2170;48.794;9.182;2023-07-20T20:04:00;4.10;;;2.33;;
4313;SDS011;2170;48.794;9.182;2023-07-20T20:06:27;3.30;;;2.30;;
4313;SDS011;2170;48.794;9.182;2023-07-20T20:08:56;2.80;;;2.60;;
4313;SDS011;2170;48.794;9.182;2023-07-20T20:11:27;2.20;;;2.10;;
4313;SDS011;2170;48.794;9.182;2023-07-20T20:13:59;7.60;;;2.40;;
4313;SDS011;2170;48.794;9.182;2023-07-20T20:16:36;3.63;;;2.67;;
4313;SDS011;2170;48.794;9.182;2023-07-20T20:19:08;2.20;;;2.00;;
4313;SDS011;2170;48.794;9.182;2023-07-20T20:22:05;4.10;;;2.47;;
4313;SDS011;2170;48.794;9.182;2023-07-20T20:27:28;3.93;;;3.07;;
4313;SDS011;2170;48.794;9.182;2023-07-20T20:29:58;3.83;;;3.53;;
4313;SDS011;2170;48.794;9.182;2023-07-20T20:32:34;4.53;;;3.40;;
4313;SDS011;2170;48.794;9.182;2023-07-20T20:35:09;3.27;;;2.90;;
4313;SDS011;2170;48.794;9.182;2023-07-20T20:37:42;4.20;;;3.20;;
4313;SDS011;2170;48.794;9.182;2023-07-20T20:40:14;6.50;;;3.40;;
4313;SDS011;2170;48.794;9.182;2023-07-20T20:42:45;6.07;;;3.60;;
4313;SDS011;2170;48.794;9.182;2023-07-20T20:45:17;5.13;;;3.13;;
4313;SDS011;2170;48.794;9.182;2023-07-20T20:47:44;3.60;;;3.30;;
4313;SDS011;2170;48.794;9.182;2023-07-20T20:50:18;3.13;;;2.87;;
4313;SDS011;2170;48.794;9.182;2023-07-20T20:52:59;3.63;;;3.33;;
4313;SDS011;2170;48.794;9.182;2023-07-20T20:55:29;4.43;;;3.90;;
4313;SDS011;2170;48.794;9.182;2023-07-20T20:58:01;6.73;;;3.30;;
4313;SDS011;2170;48.794;9.182;2023-07-20T21:00:32;4.33;;;3.17;;
4313;SDS011;2170;48.794;9.182;2023-07-20T21:03:07;3.57;;;3.27;;
4313;SDS011;2170;48.794;9.182;2023-07-20T21:05:39;2.90;;;2.70;;
4313;SDS011;2170;48.794;9.182;2023-07-20T21:08:06;3.73;;;3.07;;
4313;SDS011;2170;48.794;9.182;2023-07-20T21:10:42;2.73;;;2.53;;
4313;SDS011;2170;48.794;9.182;2023-07-20T21:13:24;3.07;;;2.87;;
4313;SDS011;2170;48.794;9.182;2023-07-20T21:15:54;3.17;;;2.80;;
4313;SDS011;2170;48.794;9.182;2023-07-20T21:18:22;3.70;;;3.07;;
4313;SDS011;2170;48.794;9.182;2023-07-20T21:20:52;3.47;;;3.00;;
4313;SDS011;2170;48.794;9.182;2023-07-20T21:23:28;5.33;;;3.07;;
4313;SDS011;2170;48.794;9.182;2023-07-20T21:26:03;3.03;;;2.83;;
4313;SDS011;2170;48.794;9.182;2023-07-20T21:28:31;2.93;;;2.73;;
4313;SDS011;2170;48.794;9.182;2023-07-20T21:31:10;4.97;;;4.50;;
4313;SDS011;2170;48.794;9.182;2023-07-20T21:33:54;5.57;;;4.87;;
4313;SDS011;2170;48.794;9.182;2023-07-20T21:36:22;4.07;;;3.63;;
4313;SDS011;2170;48.794;9.182;2023-07-20T21:38:54;3.93;;;3.37;;
4313;SDS011;2170;48.794;9.182;2023-07-20T21:41:33;3.10;;;2.80;;
4313;SDS011;2170;48.794;9.182;2023-07-20T21:44:07;4.63;;;3.50;;
4313;SDS011;2170;48.794;9.182;2023-07-20T21:46:37;3.47;;;3.17;;
4313;SDS011;2170;48.794;9.182;2023-07-20T21:49:05;3.57;;;2.93;;
4313;SDS011;2170;48.794;9.182;2023-07-20T21:51:43;3.40;;;2.80;;
4313;SDS011;2170;48.794;9.182;2023-07-20T21:54:16;3.10;;;2.70;;
4313;SDS011;2170;48.794;9.182;2023-07-20T21:56:54;3.33;;;3.03;;
4313;SDS011;2170;48.794;9.182;2023-07-20T21:59:30;3.27;;;2.97;;
4313;SDS011;2170;48.794;9.182;2023-07-20T22:01:59;3.40;;;2.90;;
4313;SDS011;2170;48.794;9.182;2023-07-20T22:04:31;4.47;;;3.20;;
4313;SDS011;2170;48.794;9.182;2023-07-20T22:07:03;3.77;;;3.47;;
4313;SDS011;2170;48.794;9.182;2023-07-20T22:09:45;5.30;;;2.90;;
4313;SDS011;2170;48.794;9.182;2023-07-20T22:12:19;5.23;;;3.20;;
4313;SDS011;2170;48.794;9.182;2023-07-20T22:14:58;3.70;;;3.40;;
4313;SDS011;2170;48.794;9.182;2023-07-20T22:17:40;4.40;;;3.17;;
4313;SDS011;2170;48.794;9.182;2023-07-20T22:20:21;3.10;;;2.90;;
4313;SDS011;2170;48.794;9.182;2023-07-20T22:22:51;3.30;;;3.00;;
4313;SDS011;2170;48.794;9.182;2023-07-20T22:25:27;4.03;;;3.33;;
4313;SDS011;2170;48.794;9.182;2023-07-20T22:27:57;3.30;;;2.80;;
4313;SDS011;2170;48.794;9.182;2023-07-20T22:30:24;3.83;;;3.53;;
4313;SDS011;2170;48.794;9.182;2023-07-20T22:32:52;3.57;;;2.90;;
4313;SDS011;2170;48.794;9.182;2023-07-20T22:35:20;3.03;;;2.80;;
4313;SDS011;2170;48.794;9.182;2023-07-20T22:37:51;4.60;;;2.73;;
4313;SDS011;2170;48.794;9.182;2023-07-20T22:40:21;3.13;;;2.80;;
4313;SDS011;2170;48.794;9.182;2023-07-20T22:42:56;3.80;;;2.97;;
4313;SDS011;2170;48.794;9.182;2023-07-20T22:45:42;4.80;;;3.13;;
4313;SDS011;2170;48.794;9.182;2023-07-20T22:48:11;3.50;;;2.97;;
4313;SDS011;2170;48.794;9.182;2023-07-20T22:50:45;5.60;;;3.20;;
4313;SDS011;2170;48.794;9.182;2023-07-20T22:53:16;3.53;;;2.47;;
4313;SDS011;2170;48.794;9.182;2023-07-20T22:55:48;5.40;;;2.50;;
4313;SDS011;2170;48.794;9.182;2023-07-20T22:58:19;3.90;;;2.87;;
4313;SDS011;2170;48.794;9.182;2023-07-20T23:00:47;3.00;;;2.70;;
4313;SDS011;2170;48.794;9.182;2023-07-20T23:03:15;3.23;;;2.67;;
4313;SDS011;2170;48.794;9.182;2023-07-20T23:05:44;3.00;;;2.80;;
4313;SDS011;2170;48.794;9.182;2023-07-20T23:08:18;3.07;;;2.73;;
4313;SDS011;2170;48.794;9.182;2023-07-20T23:10:45;3.80;;;2.83;;
4313;SDS011;2170;48.794;9.182;2023-07-20T23:13:19;2.60;;;2.20;;
4313;SDS011;2170;48.794;9.182;2023-07-20T23:16:06;3.20;;;2.70;;
4313;SDS011;2170;48.794;9.182;2023-07-20T23:18:37;2.77;;;2.53;;
4313;SDS011;2170;48.794;9.182;2023-07-20T23:21:11;4.83;;;3.03;;
4313;SDS011;2170;48.794;9.182;2023-07-20T23:23:43;2.80;;;2.47;;
4313;SDS011;2170;48.794;9.182;2023-07-20T23:26:17;2.37;;;2.17;;
4313;SDS011;2170;48.794;9.182;2023-07-20T23:28:54;2.60;;;2.40;;
4313;SDS011;2170;48.794;9.182;2023-07-20T23:31:23;2.60;;;2.40;;
4313;SDS011;2170;48.794;9.182;2023-07-20T23:34:15;2.77;;;2.57;;
4313;SDS011;2170;48.794;9.182;2023-07-20T23:36:45;3.27;;;2.97;;
4313;SDS011;2170;48.794;9.182;2023-07-20T23:39:23;3.57;;;2.90;;
4313;SDS011;2170;48.794;9.182;2023-07-20T23:41:59;2.93;;;2.73;;
4313;SDS011;2170;48.794;9.182;2023-07-20T23:44:52;3.43;;;2.63;;
4313;SDS011;2170;48.794;9.182;2023-07-20T23:47:29;2.90;;;2.47;;
4313;SDS011;2170;48.794;9.182;2023-07-20T23:50:15;2.97;;;2.60;;
4313;SDS011;2170;48.794;9.182;2023-07-20T23:53:10;2.50;;;2.30;;
4313;SDS011;2170;48.794;9.182;2023-07-20T23:55:51;2.70;;;2.50;;
4313;SDS011;2170;48.794;9.182;2023-07-20T23:58:32;5.13;;;2.20;;
